createdAt,value
2018-01-29T00:00:03.347Z,3.85
2018-01-29T00:02:30.902Z,4.43
2018-01-29T00:04:58.458Z,3.45
2018-01-29T00:07:25.961Z,3.67
2018-01-29T00:09:53.609Z,2.87
2018-01-29T00:12:21.113Z,4.00
2018-01-29T00:14:48.621Z,4.03
2018-01-29T00:17:16.157Z,4.12
2018-01-29T00:19:43.667Z,4.15
2018-01-29T00:22:11.476Z,4.78
2018-01-29T00:24:38.980Z,3.78
2018-01-29T00:27:06.480Z,4.00
2018-01-29T00:29:34.009Z,4.50
2018-01-29T00:32:01.517Z,4.32
2018-01-29T00:34:29.374Z,4.90
2018-01-29T00:36:56.934Z,4.62
2018-01-29T00:39:24.436Z,5.00
2018-01-29T00:41:51.965Z,5.05
2018-01-29T00:44:19.510Z,4.12
2018-01-29T00:46:47.056Z,5.12
2018-01-29T00:49:14.556Z,4.57
2018-01-29T00:51:42.083Z,5.10
2018-01-29T00:54:09.643Z,5.07
2018-01-29T00:56:37.150Z,5.35
2018-01-29T00:59:04.967Z,4.20
2018-01-29T01:01:32.465Z,4.82
2018-01-29T01:03:59.983Z,5.22
2018-01-29T01:06:27.540Z,4.93
2018-01-29T01:08:55.116Z,4.78
2018-01-29T01:11:22.837Z,5.37
2018-01-29T01:13:50.338Z,6.25
2018-01-29T01:16:17.879Z,4.95
2018-01-29T01:18:45.406Z,4.78
2018-01-29T01:21:12.912Z,4.68
2018-01-29T01:23:40.761Z,5.12
2018-01-29T01:26:08.270Z,4.50
2018-01-29T01:28:35.765Z,4.53
2018-01-29T01:31:03.347Z,4.35
2018-01-29T01:33:30.900Z,4.55
2018-01-29T01:35:58.832Z,5.18
2018-01-29T01:38:26.336Z,4.75
2018-01-29T01:40:53.840Z,5.30
2018-01-29T01:43:21.372Z,4.65
2018-01-29T01:45:48.876Z,3.87
2018-01-29T01:48:16.662Z,4.53
2018-01-29T01:50:44.161Z,4.00
2018-01-29T01:53:11.664Z,5.12
2018-01-29T01:55:39.237Z,4.60
2018-01-29T01:58:06.732Z,4.85
2018-01-29T02:00:34.265Z,4.97
2018-01-29T02:03:01.766Z,4.35
2018-01-29T02:05:29.267Z,5.25
2018-01-29T02:07:56.804Z,5.80
2018-01-29T02:10:24.312Z,5.15
2018-01-29T02:12:51.948Z,4.70
2018-01-29T02:15:19.441Z,4.20
2018-01-29T02:17:46.939Z,4.43
2018-01-29T02:20:14.465Z,5.35
2018-01-29T02:22:41.969Z,3.95
2018-01-29T02:25:09.842Z,4.55
2018-01-29T02:27:37.342Z,4.70
2018-01-29T02:30:04.859Z,4.00
2018-01-29T02:32:32.418Z,4.15
2018-01-29T02:34:59.913Z,4.62
2018-01-29T02:37:27.684Z,4.15
2018-01-29T02:39:55.194Z,5.70
2018-01-29T02:42:22.685Z,3.95
2018-01-29T02:44:50.218Z,5.00
2018-01-29T02:47:17.724Z,4.40
2018-01-29T02:49:45.537Z,3.85
2018-01-29T02:52:13.033Z,4.72
2018-01-29T02:54:40.554Z,4.07
2018-01-29T02:57:08.113Z,3.50
2018-01-29T02:59:35.629Z,4.07
2018-01-29T03:02:03.337Z,3.60
2018-01-29T03:04:30.913Z,3.67
2018-01-29T03:06:58.453Z,3.92
2018-01-29T03:09:25.974Z,3.45
2018-01-29T03:11:53.478Z,3.42
2018-01-29T03:14:21.230Z,4.40
2018-01-29T03:16:48.728Z,3.60
2018-01-29T03:19:16.228Z,3.92
2018-01-29T03:21:43.749Z,4.05
2018-01-29T03:24:11.257Z,3.80
2018-01-29T03:26:39.334Z,4.07
2018-01-29T03:29:06.897Z,4.10
2018-01-29T03:31:34.394Z,4.18
2018-01-29T03:34:01.940Z,4.82
2018-01-29T03:36:29.445Z,4.65
2018-01-29T03:38:57.312Z,3.72
2018-01-29T03:41:24.814Z,3.85
2018-01-29T03:43:52.367Z,4.40
2018-01-29T03:46:19.899Z,3.95
2018-01-29T03:48:47.393Z,4.05
2018-01-29T03:51:15.130Z,4.75
2018-01-29T03:53:42.637Z,4.45
2018-01-29T03:56:10.160Z,3.58
2018-01-29T03:58:37.685Z,4.28
2018-01-29T04:01:05.205Z,4.30
2018-01-29T04:03:32.750Z,3.58
2018-01-29T04:06:00.249Z,4.12
2018-01-29T04:08:27.749Z,3.17
2018-01-29T04:10:55.282Z,4.15
2018-01-29T04:13:22.786Z,4.07
2018-01-29T04:15:50.589Z,4.10
2018-01-29T04:18:18.112Z,3.85
2018-01-29T04:20:45.634Z,3.92
2018-01-29T04:23:13.181Z,4.12
2018-01-29T04:25:40.680Z,3.53
2018-01-29T04:28:08.309Z,3.70
2018-01-29T04:30:35.804Z,3.17
2018-01-29T04:33:03.312Z,4.12
2018-01-29T04:35:30.840Z,3.35
2018-01-29T04:37:58.345Z,3.15
2018-01-29T04:40:26.234Z,3.60
2018-01-29T04:42:53.792Z,3.30
2018-01-29T04:45:21.292Z,3.95
2018-01-29T04:47:48.869Z,3.15
2018-01-29T04:50:16.342Z,3.05
2018-01-29T04:52:44.005Z,3.30
2018-01-29T04:55:11.505Z,3.40
2018-01-29T04:57:39.002Z,2.92
2018-01-29T05:00:06.529Z,3.50
2018-01-29T05:02:34.025Z,3.65
2018-01-29T05:05:01.701Z,3.83
2018-01-29T05:07:29.197Z,3.80
2018-01-29T05:09:56.691Z,3.08
2018-01-29T05:12:24.212Z,3.42
2018-01-29T05:14:51.730Z,4.80
2018-01-29T05:17:19.291Z,3.28
2018-01-29T05:19:46.789Z,3.20
2018-01-29T05:22:14.305Z,3.50
2018-01-29T05:24:41.897Z,4.20
2018-01-29T05:27:09.429Z,4.15
2018-01-29T05:29:36.993Z,4.68
2018-01-29T05:32:04.543Z,4.20
2018-01-29T05:34:32.049Z,3.90
2018-01-29T05:37:02.095Z,3.50
2018-01-29T05:39:29.985Z,3.80
2018-01-29T05:41:57.589Z,3.05
2018-01-29T05:44:28.667Z,3.45
2018-01-29T05:46:56.383Z,3.37
2018-01-29T05:49:23.921Z,3.70
2018-01-29T05:51:51.547Z,2.65
2018-01-29T05:54:19.127Z,3.40
2018-01-29T05:56:46.688Z,2.67
2018-01-29T05:59:14.189Z,2.70
2018-01-29T06:01:41.721Z,2.85
2018-01-29T06:04:09.245Z,2.70
2018-01-29T06:06:37.129Z,2.67
2018-01-29T06:09:04.637Z,2.78
2018-01-29T06:11:32.168Z,2.45
2018-01-29T06:13:59.701Z,2.65
2018-01-29T06:16:27.215Z,2.60
2018-01-29T06:18:54.749Z,3.10
2018-01-29T06:21:22.271Z,2.53
2018-01-29T06:23:49.839Z,2.40
2018-01-29T06:26:17.412Z,2.30
2018-01-29T06:28:44.925Z,1.73
2018-01-29T06:31:12.800Z,1.77
2018-01-29T06:33:40.305Z,2.33
2018-01-29T06:36:07.839Z,2.22
2018-01-29T06:38:35.400Z,2.45
2018-01-29T06:41:02.901Z,2.20
2018-01-29T06:43:30.618Z,2.22
2018-01-29T06:45:58.231Z,1.50
2018-01-29T06:48:25.773Z,1.80
2018-01-29T06:50:53.360Z,1.70
2018-01-29T06:53:20.881Z,1.33
2018-01-29T06:55:48.406Z,1.33
2018-01-29T06:58:16.872Z,1.25
2018-01-29T07:00:44.381Z,1.15
2018-01-29T07:03:11.914Z,1.10
2018-01-29T07:05:39.418Z,1.00
2018-01-29T07:08:07.149Z,0.90
2018-01-29T07:10:34.690Z,1.30
2018-01-29T07:13:02.218Z,1.58
2018-01-29T07:15:29.753Z,1.08
2018-01-29T07:17:57.257Z,0.98
2018-01-29T07:20:25.029Z,1.10
2018-01-29T07:22:52.528Z,1.15
2018-01-29T07:25:20.045Z,0.95
2018-01-29T07:27:47.612Z,1.00
2018-01-29T07:30:15.189Z,0.95
2018-01-29T07:32:42.752Z,1.10
2018-01-29T07:35:10.257Z,1.10
2018-01-29T07:37:37.760Z,1.37
2018-01-29T07:40:05.297Z,1.40
2018-01-29T07:42:32.873Z,1.33
2018-01-29T07:45:00.483Z,1.60
2018-01-29T07:47:28.002Z,1.30
2018-01-29T07:49:55.517Z,1.08
2018-01-29T07:52:23.071Z,1.70
2018-01-29T07:54:50.590Z,1.20
2018-01-29T07:57:18.583Z,1.40
2018-01-29T07:59:46.093Z,1.42
2018-01-29T08:02:13.637Z,1.30
2018-01-29T08:04:41.196Z,1.02
2018-01-29T08:07:08.707Z,1.40
2018-01-29T08:09:36.745Z,1.30
2018-01-29T08:12:04.284Z,0.93
2018-01-29T08:14:32.047Z,1.30
2018-01-29T08:16:59.594Z,0.98
2018-01-29T08:19:27.103Z,1.20
2018-01-29T08:21:54.829Z,1.30
2018-01-29T08:24:22.388Z,0.82
2018-01-29T08:26:49.906Z,1.00
2018-01-29T08:29:17.454Z,1.10
2018-01-29T08:31:46.005Z,0.90
2018-01-29T08:34:13.751Z,0.60
2018-01-29T08:36:41.261Z,0.85
2018-01-29T08:39:08.769Z,1.00
2018-01-29T08:41:36.339Z,1.02
2018-01-29T08:44:03.857Z,0.80
2018-01-29T08:46:31.649Z,0.90
2018-01-29T08:48:59.178Z,1.20
2018-01-29T08:51:26.702Z,1.50
2018-01-29T08:53:54.267Z,0.70
2018-01-29T08:56:21.786Z,0.90
2018-01-29T08:58:49.525Z,0.98
2018-01-29T09:01:17.059Z,0.93
2018-01-29T09:03:44.579Z,0.93
2018-01-29T09:06:12.123Z,0.80
2018-01-29T09:08:39.689Z,0.80
2018-01-29T09:11:07.522Z,1.37
2018-01-29T09:13:35.039Z,0.88
2018-01-29T09:16:02.573Z,1.00
2018-01-29T09:18:30.224Z,1.05
2018-01-29T09:20:57.742Z,1.17
2018-01-29T09:23:25.437Z,0.70
2018-01-29T09:25:52.959Z,1.08
2018-01-29T09:28:20.486Z,0.80
2018-01-29T09:30:48.039Z,0.80
2018-01-29T09:33:15.563Z,0.98
2018-01-29T09:35:43.360Z,0.93
2018-01-29T09:38:10.801Z,0.80
2018-01-29T09:40:38.368Z,0.70
2018-01-29T09:43:05.946Z,0.90
2018-01-29T09:45:33.457Z,0.87
2018-01-29T09:48:00.999Z,0.70
2018-01-29T09:50:28.510Z,0.70
2018-01-29T09:52:56.029Z,0.80
2018-01-29T09:55:23.563Z,0.70
2018-01-29T09:57:51.071Z,0.53
2018-01-29T10:00:18.833Z,0.60
2018-01-29T10:02:46.392Z,0.60
2018-01-29T10:05:13.897Z,0.57
2018-01-29T10:07:41.451Z,0.50
2018-01-29T10:10:08.979Z,0.90
2018-01-29T10:12:36.529Z,0.83
2018-01-29T10:15:04.038Z,0.83
2018-01-29T10:17:31.548Z,0.90
2018-01-29T10:19:59.069Z,0.70
2018-01-29T10:22:26.581Z,0.80
2018-01-29T10:24:54.322Z,1.83
2018-01-29T10:27:21.821Z,1.00
2018-01-29T10:29:49.325Z,0.53
2018-01-29T10:32:19.645Z,0.60
2018-01-29T10:34:50.660Z,0.50
2018-01-29T10:37:21.225Z,0.60
2018-01-29T10:39:48.778Z,0.50
2018-01-29T10:42:16.308Z,0.60
2018-01-29T10:44:43.820Z,0.60
2018-01-29T10:47:11.368Z,0.50
2018-01-29T10:49:38.865Z,0.50
2018-01-29T10:52:06.381Z,0.70
2018-01-29T10:54:33.941Z,0.57
2018-01-29T10:57:01.439Z,0.67
2018-01-29T10:59:28.974Z,0.70
2018-01-29T11:02:02.367Z,0.60
2018-01-29T11:04:29.911Z,0.57
2018-01-29T11:06:57.427Z,0.90
2018-01-29T11:09:24.956Z,0.70
2018-01-29T11:11:52.511Z,0.70
2018-01-29T11:14:20.200Z,0.50
2018-01-29T11:16:47.709Z,0.60
2018-01-29T11:19:15.212Z,0.50
2018-01-29T11:21:42.927Z,1.00
2018-01-29T11:24:10.897Z,0.70
2018-01-29T11:26:38.456Z,0.90
2018-01-29T11:29:06.016Z,0.80
2018-01-29T11:31:33.519Z,0.60
2018-01-29T11:34:01.051Z,0.97
2018-01-29T11:36:28.640Z,1.70
2018-01-29T11:38:56.660Z,0.70
2018-01-29T11:41:24.632Z,2.30
2018-01-29T11:43:52.133Z,1.63
2018-01-29T11:46:19.665Z,1.27
2018-01-29T11:48:47.188Z,1.20
2018-01-29T11:51:14.969Z,1.40
2018-01-29T11:53:42.529Z,1.30
2018-01-29T11:56:10.034Z,1.10
2018-01-29T11:58:37.562Z,0.90
2018-01-29T12:01:05.104Z,0.60
2018-01-29T12:03:32.678Z,0.80
2018-01-29T12:06:00.180Z,0.53
2018-01-29T12:08:27.679Z,0.60
2018-01-29T12:10:55.206Z,0.80
2018-01-29T12:13:22.724Z,0.53
2018-01-29T12:15:50.256Z,0.60
2018-01-29T12:18:17.757Z,0.80
2018-01-29T12:20:45.256Z,0.70
2018-01-29T12:23:12.784Z,0.80
2018-01-29T12:25:40.297Z,0.80
2018-01-29T12:28:08.249Z,0.60
2018-01-29T12:30:35.762Z,0.80
2018-01-29T12:33:03.266Z,0.70
2018-01-29T12:35:30.831Z,1.30
2018-01-29T12:37:58.337Z,1.10
2018-01-29T12:40:26.157Z,0.80
2018-01-29T12:42:59.836Z,0.50
2018-01-29T12:45:29.242Z,0.50
2018-01-29T12:48:10.404Z,0.47
2018-01-29T12:50:40.841Z,0.50
2018-01-29T12:53:11.825Z,0.60
2018-01-29T12:55:45.608Z,0.47
2018-01-29T12:58:15.171Z,0.40
2018-01-29T13:00:43.193Z,0.40
2018-01-29T13:03:17.050Z,0.60
2018-01-29T13:05:48.297Z,0.50
2018-01-29T13:08:36.990Z,0.97
2018-01-29T13:11:15.292Z,0.80
2018-01-29T13:13:48.694Z,0.50
2018-01-29T13:16:18.729Z,0.40
2018-01-29T13:18:50.962Z,0.50
2018-01-29T13:21:22.780Z,0.40
2018-01-29T13:23:51.648Z,0.40
2018-01-29T13:26:23.428Z,0.47
2018-01-29T13:28:55.273Z,0.47
2018-01-29T13:31:28.638Z,0.50
2018-01-29T13:33:57.536Z,0.60
2018-01-29T13:36:30.545Z,0.53
2018-01-29T13:38:58.900Z,0.40
2018-01-29T13:41:26.409Z,1.07
2018-01-29T13:43:54.452Z,0.40
2018-01-29T13:46:24.133Z,0.50
2018-01-29T13:48:51.628Z,0.50
2018-01-29T13:51:19.562Z,0.50
2018-01-29T13:53:50.528Z,0.87
2018-01-29T13:56:29.920Z,0.60
2018-01-29T13:58:59.260Z,0.60
2018-01-29T14:01:46.464Z,0.40
2018-01-29T14:04:18.777Z,0.70
2018-01-29T14:06:48.448Z,0.30
2018-01-29T14:09:15.996Z,0.47
2018-01-29T14:11:49.369Z,0.47
2018-01-29T14:14:16.864Z,0.50
2018-01-29T14:16:45.904Z,0.90
2018-01-29T14:19:14.370Z,1.00
2018-01-29T14:21:41.933Z,1.17
2018-01-29T14:24:18.246Z,2.00
2018-01-29T14:26:45.752Z,1.80
2018-01-29T14:29:14.269Z,0.97
2018-01-29T14:31:47.173Z,0.70
2018-01-29T14:34:19.753Z,0.60
2018-01-29T14:36:51.713Z,1.00
2018-01-29T14:39:23.136Z,0.60
2018-01-29T14:41:56.838Z,1.13
2018-01-29T14:44:40.872Z,0.67
2018-01-29T14:47:10.469Z,0.43
2018-01-29T14:49:40.235Z,0.60
2018-01-29T14:52:30.522Z,1.10
2018-01-29T14:54:58.081Z,0.47
2018-01-29T14:57:25.877Z,0.50
2018-01-29T14:59:53.388Z,0.90
2018-01-29T15:02:21.852Z,0.90
2018-01-29T15:04:49.389Z,0.50
2018-01-29T15:07:17.720Z,0.60
2018-01-29T15:09:45.456Z,0.80
2018-01-29T15:12:12.972Z,1.00
2018-01-29T15:14:41.406Z,0.60
2018-01-29T15:17:12.220Z,1.02
2018-01-29T15:19:40.314Z,0.50
2018-01-29T15:22:14.830Z,0.68
2018-01-29T15:24:43.385Z,1.45
2018-01-29T15:27:10.901Z,1.87
2018-01-29T15:29:38.448Z,0.98
2018-01-29T15:32:08.998Z,0.60
2018-01-29T15:34:36.639Z,0.52
2018-01-29T15:37:14.813Z,0.80
2018-01-29T15:39:45.585Z,0.80
2018-01-29T15:42:19.458Z,0.70
2018-01-29T15:44:47.152Z,0.82
2018-01-29T15:47:14.711Z,0.80
2018-01-29T15:49:42.226Z,0.70
2018-01-29T15:52:09.751Z,0.52
2018-01-29T15:54:37.294Z,1.10
2018-01-29T15:57:04.899Z,0.57
2018-01-29T15:59:32.814Z,0.60
2018-01-29T16:02:00.686Z,1.10
2018-01-29T16:04:28.186Z,0.70
2018-01-29T16:06:56.522Z,0.60
2018-01-29T16:09:24.068Z,0.85
2018-01-29T16:11:51.640Z,1.42
2018-01-29T16:14:19.484Z,1.15
2018-01-29T16:16:46.993Z,1.10
2018-01-29T16:19:15.346Z,0.77
2018-01-29T16:21:42.894Z,1.10
2018-01-29T16:24:10.451Z,1.30
2018-01-29T16:26:38.018Z,1.48
2018-01-29T16:29:05.572Z,1.35
2018-01-29T16:31:33.546Z,1.55
2018-01-29T16:34:01.100Z,1.05
2018-01-29T16:36:28.658Z,0.90
2018-01-29T16:38:56.161Z,1.12
2018-01-29T16:41:23.896Z,1.15
2018-01-29T16:43:52.301Z,0.80
2018-01-29T16:46:19.919Z,1.02
2018-01-29T16:48:47.661Z,1.20
2018-01-29T16:51:15.245Z,1.62
2018-01-29T16:53:43.094Z,0.95
2018-01-29T16:56:14.671Z,0.90
2018-01-29T16:58:42.327Z,0.88
2018-01-29T17:01:11.242Z,0.80
2018-01-29T17:03:52.332Z,0.98
2018-01-29T17:06:19.851Z,22.92
2018-01-29T17:08:47.371Z,4.93
2018-01-29T17:11:14.920Z,1.00
2018-01-29T17:13:47.814Z,1.10
2018-01-29T17:16:18.892Z,1.35
2018-01-29T17:18:48.215Z,0.62
2018-01-29T17:21:22.204Z,0.90
2018-01-29T17:23:50.717Z,0.80
2018-01-29T17:26:18.242Z,0.75
2018-01-29T17:28:55.685Z,1.10
2018-01-29T17:31:26.029Z,1.12
2018-01-29T17:33:53.584Z,1.00
2018-01-29T17:36:21.097Z,1.00
2018-01-29T17:38:48.917Z,0.80
2018-01-29T17:41:17.592Z,0.85
2018-01-29T17:43:45.104Z,1.02
2018-01-29T17:46:12.847Z,0.70
2018-01-29T17:48:40.407Z,0.68
2018-01-29T17:51:07.970Z,0.60
2018-01-29T17:53:35.525Z,1.02
2018-01-29T17:56:03.084Z,0.70
2018-01-29T17:58:30.596Z,0.73
2018-01-29T18:00:58.169Z,0.70
2018-01-29T18:03:25.675Z,0.85
2018-01-29T18:05:53.324Z,1.17
2018-01-29T18:08:20.985Z,0.60
2018-01-29T18:10:48.722Z,0.62
2018-01-29T18:13:16.398Z,0.82
2018-01-29T18:15:44.070Z,0.70
2018-01-29T18:18:12.812Z,0.70
2018-01-29T18:20:40.459Z,1.00
2018-01-29T18:23:08.282Z,0.90
2018-01-29T18:25:35.953Z,0.60
2018-01-29T18:28:03.811Z,0.95
2018-01-29T18:30:31.506Z,0.70
2018-01-29T18:32:59.134Z,0.75
2018-01-29T18:35:27.021Z,0.98
2018-01-29T18:37:54.762Z,2.37
2018-01-29T18:40:22.576Z,0.50
2018-01-29T18:42:50.292Z,0.60
2018-01-29T18:45:19.387Z,0.50
2018-01-29T18:48:03.434Z,1.00
2018-01-29T18:50:31.094Z,0.77
2018-01-29T18:53:03.057Z,1.23
2018-01-29T18:55:35.871Z,0.90
2018-01-29T18:58:03.602Z,1.50
2018-01-29T19:00:31.469Z,0.90
2018-01-29T19:02:59.246Z,1.17
2018-01-29T19:05:29.365Z,1.10
2018-01-29T19:08:01.881Z,1.30
2018-01-29T19:10:35.956Z,1.62
2018-01-29T19:13:03.685Z,2.45
2018-01-29T19:15:46.406Z,1.12
2018-01-29T19:18:13.992Z,1.05
2018-01-29T19:20:47.892Z,1.02
2018-01-29T19:23:19.667Z,1.55
2018-01-29T19:25:47.421Z,1.00
2018-01-29T19:28:15.192Z,0.85
2018-01-29T19:30:45.092Z,0.80
2018-01-29T19:33:18.583Z,0.90
2018-01-29T19:36:09.861Z,0.73
2018-01-29T19:38:38.176Z,0.90
2018-01-29T19:41:07.275Z,1.10
2018-01-29T19:43:36.674Z,1.35
2018-01-29T19:46:08.637Z,0.80
2018-01-29T19:48:37.731Z,1.80
2018-01-29T19:51:06.111Z,1.23
2018-01-29T19:53:34.794Z,2.00
2018-01-29T19:56:19.249Z,0.77
2018-01-29T19:58:52.362Z,1.25
2018-01-29T20:01:21.339Z,0.90
2018-01-29T20:04:04.150Z,3.92
2018-01-29T20:06:40.021Z,0.65
2018-01-29T20:09:08.327Z,0.80
2018-01-29T20:11:36.758Z,0.90
2018-01-29T20:14:06.306Z,1.17
2018-01-29T20:16:37.622Z,0.70
2018-01-29T20:19:06.225Z,0.90
2018-01-29T20:21:43.558Z,1.08
2018-01-29T20:24:15.035Z,1.30
2018-01-29T20:26:44.767Z,1.00
2018-01-29T20:29:30.243Z,0.70
2018-01-29T20:32:05.062Z,0.80
2018-01-29T20:37:27.411Z,1.00
2018-01-29T20:39:55.279Z,1.20
2018-01-29T20:42:27.341Z,0.60
2018-01-29T20:45:06.164Z,0.65
2018-01-29T20:47:42.140Z,0.90
2018-01-29T20:50:11.230Z,0.70
2018-01-29T20:52:40.619Z,0.80
2018-01-29T20:55:19.144Z,0.50
2018-01-29T20:57:47.826Z,0.75
2018-01-29T21:00:18.658Z,0.50
2018-01-29T21:02:53.387Z,0.88
2018-01-29T21:05:24.950Z,0.60
2018-01-29T21:07:52.803Z,0.60
2018-01-29T21:10:23.639Z,0.62
2018-01-29T21:12:51.545Z,0.50
2018-01-29T21:15:20.944Z,0.40
2018-01-29T21:18:02.197Z,0.50
2018-01-29T21:20:37.326Z,0.50
2018-01-29T21:23:07.960Z,0.50
2018-01-29T21:25:40.460Z,0.50
2018-01-29T21:28:14.633Z,0.47
2018-01-29T21:30:51.053Z,0.50
2018-01-29T21:33:18.984Z,0.50
2018-01-29T21:35:55.142Z,0.57
2018-01-29T21:38:25.788Z,0.73
2018-01-29T21:40:53.536Z,0.50
2018-01-29T21:43:23.175Z,0.50
2018-01-29T21:45:50.741Z,0.50
2018-01-29T21:48:18.263Z,0.88
2018-01-29T21:50:59.344Z,0.50
2018-01-29T21:53:29.900Z,0.40
2018-01-29T21:55:57.728Z,0.60
2018-01-29T21:58:26.320Z,0.70
2018-01-29T22:01:11.158Z,0.75
2018-01-29T22:03:38.843Z,0.80
2018-01-29T22:06:17.318Z,0.70
2018-01-29T22:08:45.009Z,0.85
2018-01-29T22:11:14.762Z,0.50
2018-01-29T22:13:42.391Z,0.70
2018-01-29T22:16:11.599Z,1.52
2018-01-29T22:18:42.850Z,0.40
2018-01-29T22:21:12.912Z,0.60
2018-01-29T22:23:40.437Z,0.70
2018-01-29T22:26:07.984Z,0.40
2018-01-29T22:28:37.164Z,0.50
2018-01-29T22:31:04.933Z,0.60
2018-01-29T22:33:35.399Z,0.60
2018-01-29T22:36:03.477Z,0.30
2018-01-29T22:38:35.644Z,0.40
2018-01-29T22:41:07.939Z,0.52
2018-01-29T22:43:35.468Z,0.43
2018-01-29T22:46:03.122Z,0.70
2018-01-29T22:48:30.660Z,0.55
2018-01-29T22:50:58.209Z,0.50
2018-01-29T22:53:25.765Z,0.70
2018-01-29T22:55:53.273Z,0.50
2018-01-29T22:58:20.987Z,0.52
2018-01-29T23:00:48.548Z,0.52
2018-01-29T23:03:16.049Z,1.12
2018-01-29T23:05:43.576Z,0.50
2018-01-29T23:08:11.119Z,0.60
2018-01-29T23:10:38.710Z,0.40
2018-01-29T23:13:07.033Z,0.50
2018-01-29T23:15:34.568Z,0.50
2018-01-29T23:18:02.073Z,0.60
2018-01-29T23:20:29.631Z,0.40
2018-01-29T23:22:57.129Z,0.37
2018-01-29T23:25:24.694Z,0.30
2018-01-29T23:27:52.204Z,0.57
2018-01-29T23:30:19.728Z,0.50
2018-01-29T23:32:47.243Z,0.52
2018-01-29T23:35:14.986Z,0.60
2018-01-29T23:37:42.499Z,0.60
2018-01-29T23:40:10.440Z,0.73
2018-01-29T23:42:37.971Z,0.50
2018-01-29T23:45:20.912Z,0.55
2018-01-29T23:47:48.449Z,0.60
2018-01-29T23:50:21.436Z,0.50
2018-01-29T23:52:51.042Z,0.60
2018-01-29T23:55:19.504Z,0.68
2018-01-29T23:57:47.148Z,0.70
